createdAt,value
2022-12-08T00:00:31.259Z,2.40
2022-12-08T00:01:20.196Z,2.44
2022-12-08T00:02:07.344Z,2.52
2022-12-08T00:02:54.471Z,2.44
2022-12-08T00:03:42.322Z,2.48
2022-12-08T00:04:29.261Z,2.31
2022-12-08T00:05:35.056Z,2.31
2022-12-08T00:06:52.893Z,2.32
2022-12-08T00:07:58.691Z,2.32
2022-12-08T00:09:04.217Z,2.42
2022-12-08T00:09:51.011Z,2.48
2022-12-08T00:10:49.067Z,2.50
2022-12-08T00:11:36.951Z,2.56
2022-12-08T00:12:23.749Z,2.59
2022-12-08T00:14:11.494Z,2.49
2022-12-08T00:14:58.303Z,2.52
2022-12-08T00:15:45.151Z,2.63
2022-12-08T00:16:32.135Z,2.53
2022-12-08T00:17:19.100Z,2.47
2022-12-08T00:18:05.972Z,2.53
2022-12-08T00:18:52.860Z,2.54
2022-12-08T00:19:40.520Z,2.57
2022-12-08T00:20:27.386Z,2.72
2022-12-08T00:21:14.266Z,2.76
2022-12-08T00:22:01.888Z,2.81
2022-12-08T00:22:48.766Z,2.80
2022-12-08T00:23:35.565Z,2.61
2022-12-08T00:24:24.077Z,2.56
2022-12-08T00:25:10.979Z,2.62
2022-12-08T00:26:02.273Z,2.69
2022-12-08T00:26:49.349Z,2.58
2022-12-08T00:27:36.149Z,2.57
2022-12-08T00:28:23.098Z,2.66
2022-12-08T00:29:15.892Z,2.59
2022-12-08T00:30:05.698Z,2.63
2022-12-08T00:30:52.503Z,2.68
2022-12-08T00:31:39.527Z,2.69
2022-12-08T00:32:26.431Z,2.63
2022-12-08T00:33:13.273Z,2.56
2022-12-08T00:34:00.256Z,2.56
2022-12-08T00:34:47.018Z,2.52
2022-12-08T00:35:35.661Z,2.55
2022-12-08T00:36:25.639Z,2.62
2022-12-08T00:37:12.461Z,2.60
2022-12-08T00:38:00.968Z,2.59
2022-12-08T00:38:48.799Z,2.62
2022-12-08T00:39:35.698Z,2.73
2022-12-08T00:40:22.530Z,2.80
2022-12-08T00:41:13.515Z,2.70
2022-12-08T00:42:12.358Z,2.61
2022-12-08T00:42:59.228Z,2.71
2022-12-08T00:43:46.034Z,2.63
2022-12-08T00:44:32.885Z,2.68
2022-12-08T00:45:19.982Z,2.60
2022-12-08T00:46:06.919Z,2.51
2022-12-08T00:46:53.854Z,2.50
2022-12-08T00:47:40.766Z,2.58
2022-12-08T00:48:27.607Z,2.63
2022-12-08T00:49:15.377Z,2.63
2022-12-08T00:50:02.556Z,2.75
2022-12-08T00:50:49.706Z,2.80
2022-12-08T00:51:36.655Z,2.81
2022-12-08T00:52:23.585Z,2.75
2022-12-08T00:53:10.422Z,2.70
2022-12-08T00:53:57.247Z,2.75
2022-12-08T00:54:44.115Z,2.70
2022-12-08T00:55:30.944Z,2.70
2022-12-08T00:56:17.814Z,2.75
2022-12-08T00:57:04.761Z,2.66
2022-12-08T00:57:51.575Z,2.70
2022-12-08T00:58:38.328Z,2.56
2022-12-08T00:59:25.095Z,2.51
2022-12-08T01:00:12.572Z,2.46
2022-12-08T01:00:59.429Z,2.53
2022-12-08T01:01:47.396Z,2.61
2022-12-08T01:02:34.870Z,2.69
2022-12-08T01:03:21.722Z,2.65
2022-12-08T01:04:12.385Z,2.69
2022-12-08T01:04:59.003Z,2.69
2022-12-08T01:05:45.807Z,2.69
2022-12-08T01:06:32.882Z,2.49
2022-12-08T01:07:19.724Z,2.44
2022-12-08T01:08:07.805Z,2.46
2022-12-08T01:08:54.630Z,2.42
2022-12-08T01:09:41.518Z,2.40
2022-12-08T01:10:28.411Z,2.50
2022-12-08T01:11:17.512Z,2.49
2022-12-08T01:12:04.972Z,2.61
2022-12-08T01:12:51.835Z,2.56
2022-12-08T01:13:39.158Z,2.60
2022-12-08T01:14:26.099Z,2.63
2022-12-08T01:15:12.991Z,2.52
2022-12-08T01:15:59.812Z,2.51
2022-12-08T01:16:46.912Z,2.62
2022-12-08T01:17:33.750Z,2.75
2022-12-08T01:18:20.624Z,2.73
2022-12-08T01:19:07.530Z,2.71
2022-12-08T01:19:54.407Z,2.63
2022-12-08T01:20:41.290Z,2.71
2022-12-08T01:21:28.550Z,2.72
2022-12-08T01:22:15.529Z,2.70
2022-12-08T01:23:02.294Z,2.71
2022-12-08T01:23:49.120Z,2.77
2022-12-08T01:24:35.972Z,2.74
2022-12-08T01:25:22.914Z,2.76
2022-12-08T01:26:11.593Z,2.72
2022-12-08T01:26:58.520Z,2.74
2022-12-08T01:27:45.367Z,2.65
2022-12-08T01:28:32.657Z,2.57
2022-12-08T01:29:19.693Z,2.64
2022-12-08T01:30:07.305Z,2.65
2022-12-08T01:30:54.400Z,2.52
2022-12-08T01:31:41.386Z,2.47
2022-12-08T01:32:28.195Z,2.47
2022-12-08T01:33:15.035Z,2.47
2022-12-08T01:34:01.872Z,2.48
2022-12-08T01:34:48.777Z,2.53
2022-12-08T01:35:35.635Z,2.54
2022-12-08T01:36:27.909Z,2.33
2022-12-08T01:37:14.816Z,2.40
2022-12-08T01:38:01.643Z,2.47
2022-12-08T01:38:48.792Z,2.44
2022-12-08T01:39:35.645Z,2.51
2022-12-08T01:40:22.569Z,2.37
2022-12-08T01:41:11.050Z,2.31
2022-12-08T01:41:57.887Z,2.41
2022-12-08T01:42:44.714Z,2.52
2022-12-08T01:43:49.430Z,2.53
2022-12-08T01:44:36.181Z,2.49
2022-12-08T01:45:27.128Z,2.35
2022-12-08T01:46:14.056Z,2.45
2022-12-08T01:47:00.969Z,2.54
2022-12-08T01:47:50.641Z,2.30
2022-12-08T01:48:37.589Z,2.38
2022-12-08T01:49:28.402Z,2.49
2022-12-08T01:50:17.487Z,2.43
2022-12-08T01:51:05.416Z,2.53
2022-12-08T01:51:56.954Z,2.37
2022-12-08T01:52:48.970Z,2.39
2022-12-08T01:53:35.803Z,2.40
2022-12-08T01:54:25.478Z,2.41
2022-12-08T01:55:23.083Z,2.45
2022-12-08T01:56:13.630Z,2.31
2022-12-08T01:57:10.803Z,2.36
2022-12-08T01:58:02.864Z,2.37
2022-12-08T01:58:52.062Z,2.36
2022-12-08T01:59:42.312Z,2.29
2022-12-08T02:00:29.107Z,2.31
2022-12-08T02:01:16.867Z,2.39
2022-12-08T02:02:03.867Z,2.39
2022-12-08T02:03:03.481Z,2.38
2022-12-08T02:04:01.509Z,2.44
2022-12-08T02:04:48.371Z,2.26
2022-12-08T02:05:37.167Z,2.18
2022-12-08T02:06:24.668Z,2.23
2022-12-08T02:07:12.761Z,2.20
2022-12-08T02:08:01.432Z,2.18
2022-12-08T02:08:50.055Z,2.16
2022-12-08T02:09:37.450Z,2.31
2022-12-08T02:10:28.023Z,2.32
2022-12-08T02:11:14.914Z,2.21
2022-12-08T02:12:01.840Z,2.22
2022-12-08T02:12:50.722Z,2.34
2022-12-08T02:13:38.159Z,2.24
2022-12-08T02:14:25.634Z,2.30
2022-12-08T02:15:12.598Z,2.14
2022-12-08T02:16:02.109Z,2.17
2022-12-08T02:17:00.599Z,2.21
2022-12-08T02:18:09.356Z,2.30
2022-12-08T02:19:31.438Z,2.30
2022-12-08T02:20:24.345Z,2.41
2022-12-08T02:21:49.755Z,2.44
2022-12-08T02:22:51.135Z,2.47
2022-12-08T02:23:56.571Z,2.46
2022-12-08T02:24:56.697Z,2.54
2022-12-08T02:26:17.673Z,2.53
2022-12-08T02:27:22.948Z,2.54
2022-12-08T02:28:28.113Z,2.49
2022-12-08T02:29:29.492Z,2.35
2022-12-08T02:30:26.729Z,2.29
2022-12-08T02:31:16.097Z,2.40
2022-12-08T02:32:20.987Z,2.47
2022-12-08T02:33:20.223Z,2.52
2022-12-08T02:34:23.786Z,2.47
2022-12-08T02:35:15.010Z,2.41
2022-12-08T02:36:07.597Z,2.40
2022-12-08T02:36:54.360Z,2.22
2022-12-08T02:37:50.305Z,2.11
2022-12-08T02:38:46.418Z,1.96
2022-12-08T02:40:14.215Z,2.02
2022-12-08T02:41:11.414Z,1.81
2022-12-08T02:42:12.884Z,1.90
2022-12-08T02:43:25.097Z,1.97
2022-12-08T02:44:25.169Z,2.01
2022-12-08T02:45:19.775Z,2.08
2022-12-08T02:46:12.134Z,2.06
2022-12-08T02:47:12.277Z,2.07
2022-12-08T02:47:59.691Z,2.05
2022-12-08T02:48:47.222Z,2.12
2022-12-08T02:49:35.820Z,2.10
2022-12-08T02:50:22.917Z,2.03
2022-12-08T02:51:09.904Z,2.04
2022-12-08T02:52:06.524Z,2.10
2022-12-08T02:52:53.383Z,2.23
2022-12-08T02:53:40.906Z,2.24
2022-12-08T02:54:27.724Z,2.26
2022-12-08T02:55:50.963Z,2.18
2022-12-08T02:56:52.072Z,2.19
2022-12-08T02:57:59.066Z,2.20
2022-12-08T02:59:24.410Z,2.30
2022-12-08T03:00:15.960Z,2.21
2022-12-08T03:01:11.874Z,2.25
2022-12-08T03:02:32.726Z,2.27
2022-12-08T03:03:33.086Z,2.33
2022-12-08T03:04:35.090Z,2.29
2022-12-08T03:05:37.174Z,2.31
2022-12-08T03:06:32.994Z,2.38
2022-12-08T03:07:32.273Z,2.51
2022-12-08T03:08:23.456Z,2.54
2022-12-08T03:09:28.711Z,2.48
2022-12-08T03:10:35.038Z,2.53
2022-12-08T03:11:28.383Z,2.45
2022-12-08T03:12:32.457Z,2.48
2022-12-08T03:13:24.182Z,2.54
2022-12-08T03:14:12.086Z,2.47
2022-12-08T03:15:03.890Z,2.33
2022-12-08T03:15:51.466Z,2.31
2022-12-08T03:16:40.783Z,2.39
2022-12-08T03:17:29.206Z,2.49
2022-12-08T03:18:17.675Z,2.55
2022-12-08T03:19:11.176Z,2.63
2022-12-08T03:20:02.343Z,2.59
2022-12-08T03:20:50.273Z,2.68
2022-12-08T03:21:37.896Z,2.58
2022-12-08T03:22:26.250Z,2.66
2022-12-08T03:23:14.729Z,2.71
2022-12-08T03:24:03.020Z,2.77
2022-12-08T03:24:50.035Z,2.79
2022-12-08T03:25:43.809Z,2.82
2022-12-08T03:26:51.147Z,2.81
2022-12-08T03:27:38.009Z,2.78
2022-12-08T03:28:25.134Z,2.70
2022-12-08T03:29:12.269Z,2.85
2022-12-08T03:30:01.362Z,2.86
2022-12-08T03:30:50.347Z,2.66
2022-12-08T03:31:40.670Z,2.60
2022-12-08T03:32:44.507Z,2.49
2022-12-08T03:33:35.165Z,2.71
2022-12-08T03:34:22.469Z,2.75
2022-12-08T03:35:13.517Z,2.68
2022-12-08T03:36:02.233Z,2.70
2022-12-08T03:36:49.069Z,2.65
2022-12-08T03:37:37.129Z,2.65
2022-12-08T03:38:23.916Z,2.66
2022-12-08T03:39:11.596Z,2.72
2022-12-08T03:39:58.604Z,2.57
2022-12-08T03:41:05.686Z,2.65
2022-12-08T03:41:52.623Z,2.71
2022-12-08T03:42:39.504Z,2.78
2022-12-08T03:43:26.331Z,2.68
2022-12-08T03:44:13.238Z,2.62
2022-12-08T03:45:00.119Z,2.58
2022-12-08T03:45:46.957Z,2.52
2022-12-08T03:46:33.858Z,2.56
2022-12-08T03:47:20.656Z,2.50
2022-12-08T03:48:07.447Z,2.47
2022-12-08T03:48:54.281Z,2.55
2022-12-08T03:49:41.132Z,2.63
2022-12-08T03:50:28.040Z,2.70
2022-12-08T03:51:15.611Z,2.62
2022-12-08T03:52:02.517Z,2.60
2022-12-08T03:52:49.433Z,2.65
2022-12-08T03:53:36.306Z,2.65
2022-12-08T03:54:24.240Z,2.64
2022-12-08T03:55:11.107Z,2.55
2022-12-08T03:55:57.970Z,2.41
2022-12-08T03:56:44.844Z,2.55
2022-12-08T03:57:31.667Z,2.69
2022-12-08T03:58:18.530Z,2.71
2022-12-08T03:59:06.738Z,2.55
2022-12-08T03:59:53.507Z,2.49
2022-12-08T04:00:40.394Z,2.49
2022-12-08T04:01:27.719Z,2.53
2022-12-08T04:02:14.810Z,2.32
2022-12-08T04:03:01.855Z,2.37
2022-12-08T04:03:49.023Z,2.40
2022-12-08T04:04:35.853Z,2.39
2022-12-08T04:05:22.675Z,2.34
2022-12-08T04:06:09.621Z,2.38
2022-12-08T04:06:56.535Z,2.29
2022-12-08T04:07:43.796Z,2.40
2022-12-08T04:08:30.681Z,2.41
2022-12-08T04:09:17.884Z,2.55
2022-12-08T04:10:05.764Z,2.52
2022-12-08T04:10:52.848Z,2.33
2022-12-08T04:11:39.715Z,2.27
2022-12-08T04:12:26.621Z,2.35
2022-12-08T04:13:13.429Z,2.48
2022-12-08T04:14:00.306Z,2.45
2022-12-08T04:14:47.613Z,2.38
2022-12-08T04:15:34.420Z,2.40
2022-12-08T04:16:23.507Z,2.34
2022-12-08T04:17:10.398Z,2.52
2022-12-08T04:17:57.247Z,2.55
2022-12-08T04:18:44.192Z,2.38
2022-12-08T04:19:31.075Z,2.02
2022-12-08T04:20:17.879Z,1.96
2022-12-08T04:21:04.899Z,2.03
2022-12-08T04:21:51.756Z,2.00
2022-12-08T04:22:38.616Z,2.00
2022-12-08T04:23:25.617Z,2.12
2022-12-08T04:24:12.446Z,2.27
2022-12-08T04:24:59.353Z,2.29
2022-12-08T04:25:46.184Z,2.34
2022-12-08T04:26:33.035Z,2.27
2022-12-08T04:27:19.875Z,2.31
2022-12-08T04:28:06.941Z,2.37
2022-12-08T04:28:53.789Z,2.22
2022-12-08T04:29:40.595Z,2.12
2022-12-08T04:30:27.471Z,2.16
2022-12-08T04:31:14.473Z,2.26
2022-12-08T04:32:01.329Z,2.31
2022-12-08T04:32:48.144Z,2.28
2022-12-08T04:33:35.572Z,2.21
2022-12-08T04:34:22.538Z,2.19
2022-12-08T04:35:09.454Z,2.15
2022-12-08T04:35:56.302Z,2.27
2022-12-08T04:36:43.180Z,2.27
2022-12-08T04:37:30.134Z,2.18
2022-12-08T04:38:17.491Z,2.28
2022-12-08T04:39:04.369Z,2.15
2022-12-08T04:39:51.246Z,2.11
2022-12-08T04:40:38.699Z,2.13
2022-12-08T04:41:25.507Z,2.24
2022-12-08T04:42:12.293Z,2.18
2022-12-08T04:42:59.163Z,2.31
2022-12-08T04:43:45.999Z,2.32
2022-12-08T04:44:32.769Z,2.28
2022-12-08T04:45:19.585Z,2.24
2022-12-08T04:46:08.379Z,2.18
2022-12-08T04:46:55.312Z,2.19
2022-12-08T04:47:43.362Z,2.16
2022-12-08T04:48:30.226Z,2.12
2022-12-08T04:49:17.168Z,2.20
2022-12-08T04:50:06.032Z,2.11
2022-12-08T04:50:53.309Z,2.16
2022-12-08T04:51:40.143Z,2.16
2022-12-08T04:52:27.033Z,2.17
2022-12-08T04:53:14.738Z,2.19
2022-12-08T04:54:01.522Z,2.17
2022-12-08T04:54:48.459Z,2.16
2022-12-08T04:55:35.709Z,2.20
2022-12-08T04:56:22.636Z,2.20
2022-12-08T04:57:09.629Z,2.20
2022-12-08T04:57:56.471Z,2.16
2022-12-08T04:58:43.677Z,2.17
2022-12-08T04:59:30.555Z,2.17
2022-12-08T05:00:17.902Z,2.20
2022-12-08T05:01:04.877Z,2.07
2022-12-08T05:01:51.930Z,2.10
2022-12-08T05:02:38.921Z,2.05
2022-12-08T05:03:28.705Z,2.13
2022-12-08T05:04:15.725Z,2.15
2022-12-08T05:05:02.604Z,2.15
2022-12-08T05:05:49.472Z,2.16
2022-12-08T05:06:36.482Z,2.17
2022-12-08T05:07:23.359Z,2.10
2022-12-08T05:08:10.968Z,2.12
2022-12-08T05:08:57.853Z,2.22
2022-12-08T05:09:45.102Z,2.23
2022-12-08T05:10:32.661Z,2.31
2022-12-08T05:11:19.891Z,2.28
2022-12-08T05:12:06.873Z,2.31
2022-12-08T05:12:53.774Z,2.34
2022-12-08T05:13:40.897Z,2.34
2022-12-08T05:14:27.740Z,2.37
2022-12-08T05:15:14.557Z,2.35
2022-12-08T05:16:10.649Z,2.33
2022-12-08T05:16:57.685Z,2.41
2022-12-08T05:17:44.604Z,2.39
2022-12-08T05:18:31.582Z,2.34
2022-12-08T05:19:18.462Z,2.34
2022-12-08T05:20:06.941Z,2.35
2022-12-08T05:20:53.915Z,2.37
2022-12-08T05:21:41.185Z,2.44
2022-12-08T05:22:27.980Z,2.46
2022-12-08T05:23:14.786Z,2.31
2022-12-08T05:24:01.766Z,2.35
2022-12-08T05:24:48.647Z,2.30
2022-12-08T05:25:35.451Z,2.32
2022-12-08T05:26:22.271Z,2.36
2022-12-08T05:27:10.153Z,2.36
2022-12-08T05:28:17.714Z,2.28
2022-12-08T05:29:04.223Z,2.28
2022-12-08T05:29:51.076Z,2.36
2022-12-08T05:30:37.954Z,2.36
2022-12-08T05:31:25.006Z,2.41
2022-12-08T05:32:11.873Z,2.36
2022-12-08T05:32:58.676Z,2.30
2022-12-08T05:33:45.936Z,2.28
2022-12-08T05:34:32.816Z,2.31
2022-12-08T05:35:19.813Z,2.27
2022-12-08T05:36:07.119Z,2.31
2022-12-08T05:36:53.941Z,2.32
2022-12-08T05:37:40.983Z,2.33
2022-12-08T05:38:27.773Z,2.29
2022-12-08T05:39:15.068Z,2.32
2022-12-08T05:40:02.341Z,2.36
2022-12-08T05:40:49.397Z,2.29
2022-12-08T05:41:36.175Z,2.31
2022-12-08T05:42:24.991Z,2.38
2022-12-08T05:43:12.151Z,2.22
2022-12-08T05:43:59.016Z,2.24
2022-12-08T05:44:45.815Z,2.17
2022-12-08T05:45:34.963Z,1.93
2022-12-08T05:46:22.435Z,1.88
2022-12-08T05:47:09.281Z,1.94
2022-12-08T05:47:56.227Z,1.93
2022-12-08T05:48:43.048Z,2.03
2022-12-08T05:49:29.902Z,2.02
2022-12-08T05:50:16.847Z,2.00
2022-12-08T05:51:03.944Z,1.97
2022-12-08T05:51:50.842Z,2.10
2022-12-08T05:52:37.727Z,2.12
2022-12-08T05:53:24.769Z,2.15
2022-12-08T05:54:11.650Z,1.98
2022-12-08T05:54:58.560Z,2.01
2022-12-08T05:55:45.969Z,2.04
2022-12-08T05:56:32.797Z,2.01
2022-12-08T05:57:19.625Z,2.00
2022-12-08T05:58:08.141Z,2.11
2022-12-08T05:58:55.244Z,1.96
2022-12-08T05:59:42.137Z,1.93
2022-12-08T06:00:29.119Z,1.98
2022-12-08T06:01:27.870Z,1.96
2022-12-08T06:02:14.924Z,1.75
2022-12-08T06:03:02.226Z,1.89
2022-12-08T06:03:49.143Z,1.95
2022-12-08T06:04:36.635Z,2.08
2022-12-08T06:05:23.561Z,2.13
2022-12-08T06:06:10.363Z,2.11
2022-12-08T06:06:57.273Z,2.18
2022-12-08T06:07:44.160Z,2.21
2022-12-08T06:08:31.080Z,2.28
2022-12-08T06:09:17.995Z,2.27
2022-12-08T06:10:05.706Z,2.32
2022-12-08T06:10:52.864Z,2.31
2022-12-08T06:11:39.809Z,2.34
2022-12-08T06:12:26.727Z,2.34
2022-12-08T06:13:14.851Z,2.33
2022-12-08T06:14:02.304Z,2.39
2022-12-08T06:14:49.334Z,2.40
2022-12-08T06:15:37.469Z,2.42
2022-12-08T06:16:27.403Z,2.35
2022-12-08T06:17:14.360Z,2.20
2022-12-08T06:18:01.204Z,2.31
2022-12-08T06:18:48.008Z,2.34
2022-12-08T06:19:35.008Z,2.35
2022-12-08T06:20:21.990Z,2.34
2022-12-08T06:21:10.852Z,2.35
2022-12-08T06:21:57.643Z,2.43
2022-12-08T06:22:44.501Z,2.48
2022-12-08T06:23:31.531Z,2.56
2022-12-08T06:24:18.488Z,2.55
2022-12-08T06:25:09.982Z,2.66
2022-12-08T06:26:01.915Z,2.65
2022-12-08T06:26:48.775Z,2.62
2022-12-08T06:27:35.672Z,2.37
2022-12-08T06:28:22.702Z,2.43
2022-12-08T06:29:09.650Z,2.45
2022-12-08T06:29:56.838Z,2.50
2022-12-08T06:30:43.658Z,2.52
2022-12-08T06:31:30.577Z,2.55
2022-12-08T06:32:20.744Z,2.42
2022-12-08T06:33:09.839Z,2.49
2022-12-08T06:33:56.798Z,2.56
2022-12-08T06:34:43.606Z,2.51
2022-12-08T06:35:30.361Z,2.53
2022-12-08T06:36:19.238Z,2.55
2022-12-08T06:37:06.281Z,2.50
2022-12-08T06:37:53.122Z,2.56
2022-12-08T06:38:43.299Z,2.57
2022-12-08T06:39:30.709Z,2.59
2022-12-08T06:40:17.647Z,2.61
2022-12-08T06:41:05.981Z,2.62
2022-12-08T06:42:11.673Z,2.63
2022-12-08T06:42:58.632Z,2.61
2022-12-08T06:43:45.848Z,2.62
2022-12-08T06:44:32.715Z,2.61
2022-12-08T06:45:20.943Z,2.60
2022-12-08T06:46:10.166Z,2.63
2022-12-08T06:46:57.043Z,2.68
2022-12-08T06:47:44.960Z,2.70
2022-12-08T06:48:31.838Z,2.77
2022-12-08T06:49:18.646Z,2.68
2022-12-08T06:50:09.179Z,2.68
2022-12-08T06:50:55.990Z,2.40
2022-12-08T06:51:42.744Z,2.52
2022-12-08T06:52:29.557Z,2.63
2022-12-08T06:53:18.352Z,2.59
2022-12-08T06:54:05.230Z,2.46
2022-12-08T06:54:52.081Z,2.41
2022-12-08T06:56:01.294Z,2.42
2022-12-08T06:56:48.181Z,2.25
2022-12-08T06:57:35.300Z,2.45
2022-12-08T06:58:22.078Z,2.56
2022-12-08T06:59:08.853Z,2.63
2022-12-08T06:59:55.737Z,2.59
2022-12-08T07:00:43.466Z,2.63
2022-12-08T07:01:30.845Z,2.69
2022-12-08T07:02:17.725Z,2.70
2022-12-08T07:03:04.575Z,2.73
2022-12-08T07:03:51.694Z,2.62
2022-12-08T07:04:38.501Z,2.71
2022-12-08T07:05:25.400Z,2.73
2022-12-08T07:06:17.135Z,2.78
2022-12-08T07:07:04.142Z,2.79
2022-12-08T07:07:51.115Z,2.79
2022-12-08T07:08:37.888Z,2.81
2022-12-08T07:09:24.932Z,2.83
2022-12-08T07:10:11.827Z,2.88
2022-12-08T07:10:58.875Z,2.92
2022-12-08T07:11:45.635Z,2.85
2022-12-08T07:12:32.463Z,2.82
2022-12-08T07:13:19.318Z,2.81
2022-12-08T07:14:06.152Z,2.89
2022-12-08T07:14:53.059Z,2.80
2022-12-08T07:15:39.890Z,2.63
2022-12-08T07:16:26.706Z,2.72
2022-12-08T07:17:13.950Z,2.82
2022-12-08T07:18:00.925Z,2.91
2022-12-08T07:18:47.886Z,2.91
2022-12-08T07:19:34.721Z,2.93
2022-12-08T07:20:21.793Z,2.97
2022-12-08T07:21:13.504Z,2.80
2022-12-08T07:22:00.378Z,2.92
2022-12-08T07:22:53.153Z,2.97
2022-12-08T07:23:40.047Z,2.88
2022-12-08T07:24:26.783Z,2.98
2022-12-08T07:25:13.987Z,2.83
2022-12-08T07:26:02.663Z,2.86
2022-12-08T07:26:49.522Z,2.95
2022-12-08T07:27:36.325Z,2.92
2022-12-08T07:28:25.161Z,2.94
2022-12-08T07:29:12.189Z,2.98
2022-12-08T07:29:59.098Z,3.09
2022-12-08T07:30:46.062Z,2.97
2022-12-08T07:31:33.461Z,2.96
2022-12-08T07:32:20.583Z,2.96
2022-12-08T07:33:07.394Z,3.03
2022-12-08T07:33:55.456Z,3.10
2022-12-08T07:34:42.337Z,3.12
2022-12-08T07:35:29.212Z,3.11
2022-12-08T07:36:16.450Z,3.08
2022-12-08T07:37:03.281Z,3.11
2022-12-08T07:37:50.149Z,3.13
2022-12-08T07:38:36.976Z,3.14
2022-12-08T07:39:23.864Z,3.19
2022-12-08T07:40:11.249Z,3.05
2022-12-08T07:40:58.032Z,3.07
2022-12-08T07:41:44.985Z,3.03
2022-12-08T07:42:31.839Z,3.07
2022-12-08T07:43:19.041Z,3.16
2022-12-08T07:44:05.851Z,3.23
2022-12-08T07:44:52.718Z,3.31
2022-12-08T07:45:41.146Z,3.36
2022-12-08T07:46:28.235Z,3.40
2022-12-08T07:47:15.251Z,3.33
2022-12-08T07:48:02.028Z,3.35
2022-12-08T07:48:48.914Z,3.43
2022-12-08T07:49:35.747Z,3.36
2022-12-08T07:50:22.586Z,3.35
2022-12-08T07:51:11.244Z,3.32
2022-12-08T07:51:58.083Z,3.37
2022-12-08T07:52:44.933Z,3.29
2022-12-08T07:53:32.689Z,2.98
2022-12-08T07:54:21.060Z,3.00
2022-12-08T07:55:08.419Z,3.21
2022-12-08T07:55:55.306Z,3.34
2022-12-08T07:56:42.159Z,3.42
2022-12-08T07:57:28.923Z,3.43
2022-12-08T07:58:15.750Z,3.47
2022-12-08T07:59:03.043Z,3.46
2022-12-08T07:59:49.963Z,3.57
2022-12-08T08:00:37.014Z,3.50
2022-12-08T08:01:33.791Z,3.52
2022-12-08T08:02:24.643Z,3.47
2022-12-08T08:03:12.478Z,3.54
2022-12-08T08:04:04.854Z,3.36
2022-12-08T08:04:52.104Z,3.51
2022-12-08T08:05:39.323Z,3.61
2022-12-08T08:06:26.148Z,3.58
2022-12-08T08:07:13.108Z,3.44
2022-12-08T08:08:00.158Z,3.58
2022-12-08T08:08:47.320Z,3.50
2022-12-08T08:09:34.540Z,3.59
2022-12-08T08:10:21.421Z,3.60
2022-12-08T08:11:15.797Z,3.49
2022-12-08T08:12:30.313Z,3.55
2022-12-08T08:13:13.573Z,3.55
2022-12-08T08:14:00.391Z,3.46
2022-12-08T08:14:47.313Z,3.62
2022-12-08T08:15:34.158Z,3.54
2022-12-08T08:16:21.576Z,3.74
2022-12-08T08:17:08.710Z,3.85
2022-12-08T08:17:55.669Z,3.90
2022-12-08T08:18:43.681Z,3.93
2022-12-08T08:19:30.509Z,4.00
2022-12-08T08:20:18.035Z,4.04
2022-12-08T08:21:16.006Z,4.12
2022-12-08T08:22:11.886Z,4.24
2022-12-08T08:22:58.732Z,4.24
2022-12-08T08:23:45.601Z,4.24
2022-12-08T08:24:32.430Z,4.32
2022-12-08T08:25:22.587Z,4.41
2022-12-08T08:26:09.659Z,4.42
2022-12-08T08:26:56.580Z,4.43
2022-12-08T08:27:43.846Z,4.50
2022-12-08T08:28:31.011Z,4.52
2022-12-08T08:29:19.899Z,4.58
2022-12-08T08:30:09.982Z,4.65
2022-12-08T08:30:57.126Z,4.64
2022-12-08T08:31:44.007Z,4.71
2022-12-08T08:32:34.468Z,4.67
2022-12-08T08:33:21.649Z,4.72
2022-12-08T08:34:09.282Z,4.78
2022-12-08T08:34:56.079Z,4.59
2022-12-08T08:35:42.918Z,4.66
2022-12-08T08:36:29.705Z,4.58
2022-12-08T08:37:16.544Z,4.64
2022-12-08T08:38:03.558Z,4.74
2022-12-08T08:38:51.097Z,4.73
2022-12-08T08:39:38.056Z,4.74
2022-12-08T08:40:25.200Z,4.82
2022-12-08T08:41:12.173Z,4.83
2022-12-08T08:41:59.335Z,4.86
2022-12-08T08:42:46.132Z,4.91
2022-12-08T08:43:37.803Z,4.82
2022-12-08T08:44:25.200Z,4.80
2022-12-08T08:45:14.060Z,4.79
2022-12-08T08:46:01.712Z,4.69
2022-12-08T08:46:48.591Z,4.57
2022-12-08T08:47:35.493Z,4.49
2022-12-08T08:48:22.279Z,4.34
2022-12-08T08:49:09.011Z,4.43
2022-12-08T08:49:55.801Z,4.54
2022-12-08T08:50:42.699Z,4.62
2022-12-08T08:51:29.549Z,4.67
2022-12-08T08:52:16.514Z,4.61
2022-12-08T08:53:03.282Z,4.56
2022-12-08T08:53:50.152Z,4.67
2022-12-08T08:54:37.043Z,4.81
2022-12-08T08:55:23.840Z,4.87
2022-12-08T08:56:12.059Z,4.89
2022-12-08T08:57:00.394Z,4.86
2022-12-08T08:57:47.206Z,4.95
2022-12-08T08:58:34.632Z,5.04
2022-12-08T08:59:21.539Z,5.14
2022-12-08T09:00:10.400Z,5.19
2022-12-08T09:00:58.622Z,5.21
2022-12-08T09:01:45.547Z,5.18
2022-12-08T09:02:32.468Z,5.31
2022-12-08T09:03:19.361Z,5.31
2022-12-08T09:04:06.280Z,5.43
2022-12-08T09:04:53.464Z,5.51
2022-12-08T09:05:41.630Z,5.42
2022-12-08T09:06:29.707Z,5.49
2022-12-08T09:07:16.837Z,5.60
2022-12-08T09:08:03.888Z,5.63
2022-12-08T09:08:51.321Z,5.56
2022-12-08T09:09:38.913Z,5.54
2022-12-08T09:10:25.840Z,5.67
2022-12-08T09:11:13.229Z,5.53
2022-12-08T09:12:00.099Z,5.48
2022-12-08T09:12:47.189Z,5.52
2022-12-08T09:13:34.294Z,5.58
2022-12-08T09:14:21.446Z,5.60
2022-12-08T09:15:09.557Z,5.51
2022-12-08T09:15:56.698Z,5.53
2022-12-08T09:16:43.826Z,5.53
2022-12-08T09:17:30.882Z,5.47
2022-12-08T09:18:17.645Z,5.50
2022-12-08T09:19:04.507Z,5.41
2022-12-08T09:19:51.303Z,5.49
2022-12-08T09:20:38.374Z,5.53
2022-12-08T09:21:27.268Z,5.58
2022-12-08T09:22:15.053Z,5.63
2022-12-08T09:23:02.632Z,5.58
2022-12-08T09:23:58.644Z,5.47
2022-12-08T09:24:45.551Z,5.49
2022-12-08T09:25:32.381Z,5.63
2022-12-08T09:26:22.764Z,5.69
2022-12-08T09:27:09.582Z,5.76
2022-12-08T09:27:56.498Z,5.86
2022-12-08T09:28:46.856Z,5.64
2022-12-08T09:29:36.223Z,5.63
2022-12-08T09:30:23.533Z,5.64
2022-12-08T09:31:10.713Z,5.73
2022-12-08T09:31:58.016Z,5.70
2022-12-08T09:32:45.333Z,5.62
2022-12-08T09:33:32.921Z,5.55
2022-12-08T09:34:21.937Z,5.52
2022-12-08T09:35:09.056Z,5.56
2022-12-08T09:35:55.962Z,5.70
2022-12-08T09:36:42.785Z,5.78
2022-12-08T09:37:29.575Z,5.77
2022-12-08T09:38:16.387Z,5.51
2022-12-08T09:39:03.631Z,5.58
2022-12-08T09:39:50.626Z,5.61
2022-12-08T09:40:45.226Z,5.53
2022-12-08T09:41:43.355Z,5.50
2022-12-08T09:42:43.286Z,5.51
2022-12-08T09:43:35.986Z,5.44
2022-12-08T09:44:44.732Z,5.32
2022-12-08T09:45:35.176Z,5.09
2022-12-08T09:46:22.290Z,5.23
2022-12-08T09:47:17.034Z,5.28
2022-12-08T09:48:12.507Z,5.18
2022-12-08T09:49:00.555Z,5.21
2022-12-08T09:49:59.145Z,5.29
2022-12-08T09:50:50.497Z,5.15
2022-12-08T09:51:39.697Z,5.09
2022-12-08T09:52:34.297Z,5.18
2022-12-08T09:53:35.957Z,5.25
2022-12-08T09:54:33.600Z,5.30
2022-12-08T09:55:25.714Z,5.39
2022-12-08T09:56:30.489Z,5.46
2022-12-08T09:57:19.882Z,5.43
2022-12-08T09:58:14.840Z,5.38
2022-12-08T09:59:22.328Z,5.37
2022-12-08T10:00:14.383Z,5.18
2022-12-08T10:01:01.407Z,5.32
2022-12-08T10:01:48.861Z,5.42
2022-12-08T10:02:35.790Z,5.52
2022-12-08T10:03:25.804Z,5.63
2022-12-08T10:04:25.082Z,5.72
2022-12-08T10:05:14.988Z,5.60
2022-12-08T10:06:11.064Z,5.50
2022-12-08T10:07:28.001Z,5.48
2022-12-08T10:08:26.670Z,5.03
2022-12-08T10:09:34.905Z,5.11
2022-12-08T10:10:42.355Z,5.30
2022-12-08T10:12:00.855Z,5.00
2022-12-08T10:13:16.822Z,5.06
2022-12-08T10:14:29.297Z,5.14
2022-12-08T10:15:27.203Z,5.00
2022-12-08T10:16:37.340Z,5.02
2022-12-08T10:17:26.961Z,5.02
2022-12-08T10:18:30.024Z,5.08
2022-12-08T10:19:24.057Z,5.11
2022-12-08T10:20:17.412Z,5.08
2022-12-08T10:21:19.379Z,4.99
2022-12-08T10:22:44.339Z,4.95
2022-12-08T10:23:39.163Z,4.98
2022-12-08T10:24:37.689Z,5.22
2022-12-08T10:25:36.265Z,5.24
2022-12-08T10:26:23.110Z,5.11
2022-12-08T10:27:13.753Z,5.00
2022-12-08T10:28:00.992Z,5.01
2022-12-08T10:28:48.489Z,5.05
2022-12-08T10:29:35.376Z,5.05
2022-12-08T10:30:22.827Z,5.08
2022-12-08T10:31:23.911Z,4.90
2022-12-08T10:32:18.710Z,5.01
2022-12-08T10:33:05.996Z,5.09
2022-12-08T10:34:00.723Z,4.99
2022-12-08T10:35:12.314Z,5.09
2022-12-08T10:36:03.153Z,5.11
2022-12-08T10:36:58.057Z,5.02
2022-12-08T10:38:02.334Z,5.26
2022-12-08T10:38:49.203Z,5.48
2022-12-08T10:39:44.009Z,5.55
2022-12-08T10:40:42.168Z,5.70
2022-12-08T10:41:32.313Z,5.71
2022-12-08T10:42:22.237Z,5.64
2022-12-08T10:43:15.495Z,5.39
2022-12-08T10:44:02.458Z,5.46
2022-12-08T10:45:04.098Z,5.47
2022-12-08T10:45:52.150Z,5.43
2022-12-08T10:46:39.174Z,5.42
2022-12-08T10:47:27.743Z,5.51
2022-12-08T10:48:28.519Z,5.68
2022-12-08T10:49:17.495Z,5.55
2022-12-08T10:50:09.419Z,5.63
2022-12-08T10:50:57.656Z,5.48
2022-12-08T10:51:44.487Z,5.28
2022-12-08T10:52:31.592Z,5.30
2022-12-08T10:53:25.469Z,5.31
2022-12-08T10:54:42.619Z,5.28
2022-12-08T10:55:48.603Z,5.07
2022-12-08T10:56:35.597Z,5.06
2022-12-08T10:57:23.860Z,5.09
2022-12-08T10:58:30.101Z,5.17
2022-12-08T10:59:19.626Z,5.26
2022-12-08T11:00:13.678Z,5.26
2022-12-08T11:01:24.959Z,5.29
2022-12-08T11:02:19.102Z,5.24
2022-12-08T11:03:06.057Z,5.27
2022-12-08T11:03:55.347Z,5.31